Terminal Aerodrome Forecast
Issued by NWS Grand Forks, ND

Home | Current Version | Previous Version | Graphics & Text | Print | Product List | Glossary On
Versions: 1 2 3 4 5 6 7 8 9 10 11 12 13 14 15 16 17 18 19 20 21
812
FTUS43 KFGF 070525
TAFFAR
TAF
KFAR 070525Z 0706/0806 29025G35KT P6SM -SN OVC015
     FM071500 29022G32KT P6SM -SN OVC025
     FM080000 31020G30KT 2SM -SN OVC010=

USA.gov is the U.S. government's official web portal to all federal, state and local government web resources and services.